Aérodrome :
LOGIN :

S'inscrire | Disclaimer

   EN    FR    IT 

 










Légende :    VFR   VFR Marginal   IFR   IFR Intensif   IFR Très Intensif
Visi : 
Plafond : 
>= 8 km
>= 3000ft
5 à 8 km
1000 à 3000 ft
1500m à 5 km
500 à 1000 ft
800 à 1500m
200 à 500 ft
< 800m
< 200 ft
Symboles :   Orages  Brouillard  Fortes neiges  Fortes précipitations  Vent > 20 kt
SIGMETs :   Divers  Orages  Givrage  Turbulence  Onde Orograph.  Cendres Volcan.






- Altitude de l'aérodrome : 1090 ft
- Code IATA : CFE


LFLC - Clermont-Ferrand Auvergne

DERNIER METAR :
  • 172100Z AUTO 28010KT 9999 FEW022 SCT033 BKN039 09/03 Q1028 NOSIG

METARs EXPIRÉS :
  • 172030Z AUTO VRB06KT 9999 FEW011 BKN035 BKN048 09/03 Q1028 NOSIG
  • 172000Z AUTO 30007KT 250V350 9999 FEW026 BKN033 09/03 Q1028 TEMPO RA
  • 171930Z AUTO 24008KT 190V310 9999 BKN033 BKN052 09/04 Q1027 TEMPO RA
  • 171900Z AUTO 24008KT 200V280 9999 SCT033 SCT046 09/03 Q1027 TEMPO RA

TAF TAF LFLC
Valide du 17 à 21h jusqu'au 18 à 21h UTC


172000Z 1721/1821 27010KT 9999 SCT025 BKN035
TEMPO 1803/1812 VRB02KT
PROB40
TEMPO 1812/1815 -SHRA SCT040TCU
ATIS : +33 4 73 62 74 38



MET'MAP, la Météo Aéronautique d'un coup d'oeil ! - Copyright ORBIFLY Décembre 2007 - Disclaimer

ORBIFLY MET'MAP TEAM :

Programmation & Développement : Alexandra Zaïnal
Sur une idée originale de : Baudouin d'Aumeries
Assistance à la programmation : Marc-Olivier Méhu
Soutien technique & logistique : Manuel Goepfert

Contact : metmap@orbifly.com




SOURCES & CREDITS :

   NOAA